sensor_id;sensor_type;location;lat;lon;timestamp;temperature;humidity
25320;DHT22;13256;49.012;8.610;2023-02-28T00:00:49;-0.40;99.90
25320;DHT22;13256;49.012;8.610;2023-02-28T00:03:16;-0.40;99.90
25320;DHT22;13256;49.012;8.610;2023-02-28T00:05:47;-0.50;99.90
25320;DHT22;13256;49.012;8.610;2023-02-28T00:08:18;-0.50;99.90
25320;DHT22;13256;49.012;8.610;2023-02-28T00:10:45;-0.50;99.90
25320;DHT22;13256;49.012;8.610;2023-02-28T00:13:27;-0.50;99.90
25320;DHT22;13256;49.012;8.610;2023-02-28T00:16:05;-0.50;99.90
25320;DHT22;13256;49.012;8.610;2023-02-28T00:18:33;-0.50;99.90
25320;DHT22;13256;49.012;8.610;2023-02-28T00:21:09;-0.50;99.90
25320;DHT22;13256;49.012;8.610;2023-02-28T00:23:48;-0.50;99.90
25320;DHT22;13256;49.012;8.610;2023-02-28T00:26:20;-0.50;99.90
25320;DHT22;13256;49.012;8.610;2023-02-28T00:28:51;-0.60;99.90
25320;DHT22;13256;49.012;8.610;2023-02-28T00:31:19;-0.60;99.90
25320;DHT22;13256;49.012;8.610;2023-02-28T00:33:50;-0.60;99.90
25320;DHT22;13256;49.012;8.610;2023-02-28T00:36:24;-0.50;99.90
25320;DHT22;13256;49.012;8.610;2023-02-28T00:38:52;-0.50;99.90
25320;DHT22;13256;49.012;8.610;2023-02-28T00:41:22;-0.60;99.90
25320;DHT22;13256;49.012;8.610;2023-02-28T00:43:55;-0.60;99.90
25320;DHT22;13256;49.012;8.610;2023-02-28T00:46:31;-0.60;99.90
25320;DHT22;13256;49.012;8.610;2023-02-28T00:48:58;-0.60;99.90
25320;DHT22;13256;49.012;8.610;2023-02-28T00:51:25;-0.60;99.90
25320;DHT22;13256;49.012;8.610;2023-02-28T00:53:51;-0.60;99.90
25320;DHT22;13256;49.012;8.610;2023-02-28T00:56:18;-0.60;99.90
25320;DHT22;13256;49.012;8.610;2023-02-28T00:58:47;-0.70;99.90
25320;DHT22;13256;49.012;8.610;2023-02-28T01:01:16;-0.70;99.90
25320;DHT22;13256;49.012;8.610;2023-02-28T01:03:44;-0.70;99.90
25320;DHT22;13256;49.012;8.610;2023-02-28T01:06:12;-0.70;99.90
25320;DHT22;13256;49.012;8.610;2023-02-28T01:08:40;-0.70;99.90
25320;DHT22;13256;49.012;8.610;2023-02-28T01:11:15;-0.70;99.90
25320;DHT22;13256;49.012;8.610;2023-02-28T01:13:45;-0.70;99.90
25320;DHT22;13256;49.012;8.610;2023-02-28T01:16:37;-0.70;99.90
25320;DHT22;13256;49.012;8.610;2023-02-28T01:19:06;-0.70;99.90
25320;DHT22;13256;49.012;8.610;2023-02-28T01:21:41;-0.70;99.90
25320;DHT22;13256;49.012;8.610;2023-02-28T01:24:17;-0.70;99.90
25320;DHT22;13256;49.012;8.610;2023-02-28T01:26:44;-0.70;99.90
25320;DHT22;13256;49.012;8.610;2023-02-28T01:29:15;-0.70;99.90
25320;DHT22;13256;49.012;8.610;2023-02-28T01:31:41;-0.70;99.90
25320;DHT22;13256;49.012;8.610;2023-02-28T01:34:10;-0.70;99.90
25320;DHT22;13256;49.012;8.610;2023-02-28T01:36:39;-0.70;99.90
25320;DHT22;13256;49.012;8.610;2023-02-28T01:39:15;-0.70;99.90
25320;DHT22;13256;49.012;8.610;2023-02-28T01:41:41;-0.70;99.90
25320;DHT22;13256;49.012;8.610;2023-02-28T01:47:14;-0.80;99.90
25320;DHT22;13256;49.012;8.610;2023-02-28T01:49:44;-0.80;99.90
25320;DHT22;13256;49.012;8.610;2023-02-28T01:52:13;-0.80;99.90
25320;DHT22;13256;49.012;8.610;2023-02-28T01:54:52;-0.80;99.90
25320;DHT22;13256;49.012;8.610;2023-02-28T01:57:29;-0.80;99.90
25320;DHT22;13256;49.012;8.610;2023-02-28T02:00:03;-0.80;99.90
25320;DHT22;13256;49.012;8.610;2023-02-28T02:02:40;-0.80;99.90
25320;DHT22;13256;49.012;8.610;2023-02-28T02:05:20;-0.90;99.90
25320;DHT22;13256;49.012;8.610;2023-02-28T02:08:02;-0.90;99.90
25320;DHT22;13256;49.012;8.610;2023-02-28T02:10:35;-0.90;99.90
25320;DHT22;13256;49.012;8.610;2023-02-28T02:21:16;-0.90;99.90
25320;DHT22;13256;49.012;8.610;2023-02-28T02:38:08;-1.00;99.90
25320;DHT22;13256;49.012;8.610;2023-02-28T02:40:43;-1.00;99.90
25320;DHT22;13256;49.012;8.610;2023-02-28T02:43:43;-1.00;99.90
25320;DHT22;13256;49.012;8.610;2023-02-28T02:46:22;-1.00;99.90
25320;DHT22;13256;49.012;8.610;2023-02-28T02:48:54;-1.00;99.90
25320;DHT22;13256;49.012;8.610;2023-02-28T02:51:31;-1.00;99.90
25320;DHT22;13256;49.012;8.610;2023-02-28T02:56:49;-1.00;99.90
25320;DHT22;13256;49.012;8.610;2023-02-28T02:59:24;-1.00;99.90
25320;DHT22;13256;49.012;8.610;2023-02-28T03:01:59;-1.00;99.90
25320;DHT22;13256;49.012;8.610;2023-02-28T03:04:33;-1.00;99.90
25320;DHT22;13256;49.012;8.610;2023-02-28T03:07:32;-1.00;99.90
25320;DHT22;13256;49.012;8.610;2023-02-28T03:10:36;-1.00;99.90
25320;DHT22;13256;49.012;8.610;2023-02-28T03:22:16;-0.90;99.90
25320;DHT22;13256;49.012;8.610;2023-02-28T03:27:29;-0.80;99.90
25320;DHT22;13256;49.012;8.610;2023-02-28T03:35:40;-0.80;99.90
25320;DHT22;13256;49.012;8.610;2023-02-28T03:38:16;-0.80;99.90
25320;DHT22;13256;49.012;8.610;2023-02-28T03:40:57;-0.80;99.90
25320;DHT22;13256;49.012;8.610;2023-02-28T03:43:29;-0.70;99.90
25320;DHT22;13256;49.012;8.610;2023-02-28T03:46:00;-0.70;99.90
25320;DHT22;13256;49.012;8.610;2023-02-28T03:48:36;-0.70;99.90
25320;DHT22;13256;49.012;8.610;2023-02-28T03:51:07;-0.70;99.90
25320;DHT22;13256;49.012;8.610;2023-02-28T03:53:40;-0.70;99.90
25320;DHT22;13256;49.012;8.610;2023-02-28T03:56:37;-0.70;99.90
25320;DHT22;13256;49.012;8.610;2023-02-28T03:59:14;-0.70;99.90
25320;DHT22;13256;49.012;8.610;2023-02-28T04:01:48;-0.70;99.90
25320;DHT22;13256;49.012;8.610;2023-02-28T04:04:17;-0.70;99.90
25320;DHT22;13256;49.012;8.610;2023-02-28T04:06:45;-0.70;99.90
25320;DHT22;13256;49.012;8.610;2023-02-28T04:09:14;-0.70;99.90
25320;DHT22;13256;49.012;8.610;2023-02-28T04:11:52;-0.70;99.90
25320;DHT22;13256;49.012;8.610;2023-02-28T04:14:25;-0.70;99.90
25320;DHT22;13256;49.012;8.610;2023-02-28T04:16:52;-0.60;99.90
25320;DHT22;13256;49.012;8.610;2023-02-28T04:19:19;-0.60;99.90
25320;DHT22;13256;49.012;8.610;2023-02-28T04:22:01;-0.60;99.90
25320;DHT22;13256;49.012;8.610;2023-02-28T04:24:30;-0.60;99.90
25320;DHT22;13256;49.012;8.610;2023-02-28T04:26:58;-0.60;99.90
25320;DHT22;13256;49.012;8.610;2023-02-28T04:29:28;-0.50;99.90
25320;DHT22;13256;49.012;8.610;2023-02-28T04:32:01;-0.60;99.90
25320;DHT22;13256;49.012;8.610;2023-02-28T04:34:32;-0.50;99.90
25320;DHT22;13256;49.012;8.610;2023-02-28T04:37:02;-0.60;99.90
25320;DHT22;13256;49.012;8.610;2023-02-28T04:39:49;-0.60;99.90
25320;DHT22;13256;49.012;8.610;2023-02-28T04:42:16;-0.70;99.90
25320;DHT22;13256;49.012;8.610;2023-02-28T04:44:43;-0.70;99.90
25320;DHT22;13256;49.012;8.610;2023-02-28T04:47:19;-0.70;99.90
25320;DHT22;13256;49.012;8.610;2023-02-28T04:49:48;-0.70;99.90
25320;DHT22;13256;49.012;8.610;2023-02-28T04:52:17;-0.70;99.90
25320;DHT22;13256;49.012;8.610;2023-02-28T04:57:47;-0.70;99.90
25320;DHT22;13256;49.012;8.610;2023-02-28T05:00:14;-0.70;99.90
25320;DHT22;13256;49.012;8.610;2023-02-28T05:02:47;-0.70;99.90
25320;DHT22;13256;49.012;8.610;2023-02-28T05:05:24;-0.70;99.90
25320;DHT22;13256;49.012;8.610;2023-02-28T05:07:51;-0.70;99.90
25320;DHT22;13256;49.012;8.610;2023-02-28T05:10:22;-0.80;99.90
25320;DHT22;13256;49.012;8.610;2023-02-28T05:12:49;-0.80;99.90
25320;DHT22;13256;49.012;8.610;2023-02-28T05:15:18;-0.80;99.90
25320;DHT22;13256;49.012;8.610;2023-02-28T05:17:45;-0.80;99.90
25320;DHT22;13256;49.012;8.610;2023-02-28T05:20:12;-0.80;99.90
25320;DHT22;13256;49.012;8.610;2023-02-28T05:22:47;-0.90;99.90
25320;DHT22;13256;49.012;8.610;2023-02-28T05:25:21;-0.80;99.90
25320;DHT22;13256;49.012;8.610;2023-02-28T05:27:53;-0.80;99.90
25320;DHT22;13256;49.012;8.610;2023-02-28T05:30:20;-0.80;99.90
25320;DHT22;13256;49.012;8.610;2023-02-28T05:36:11;-0.80;99.90
25320;DHT22;13256;49.012;8.610;2023-02-28T05:38:40;-0.80;99.90
25320;DHT22;13256;49.012;8.610;2023-02-28T05:41:11;-0.80;99.90
25320;DHT22;13256;49.012;8.610;2023-02-28T05:43:38;-0.80;99.90
25320;DHT22;13256;49.012;8.610;2023-02-28T05:46:06;-0.80;99.90
25320;DHT22;13256;49.012;8.610;2023-02-28T05:48:35;-0.80;99.90
25320;DHT22;13256;49.012;8.610;2023-02-28T05:51:03;-0.80;99.90
25320;DHT22;13256;49.012;8.610;2023-02-28T05:53:30;-0.80;99.90
25320;DHT22;13256;49.012;8.610;2023-02-28T05:55:58;-0.70;99.90
25320;DHT22;13256;49.012;8.610;2023-02-28T05:58:28;-0.70;99.90
25320;DHT22;13256;49.012;8.610;2023-02-28T06:00:57;-0.70;99.90
25320;DHT22;13256;49.012;8.610;2023-02-28T06:03:29;-0.70;99.90
25320;DHT22;13256;49.012;8.610;2023-02-28T06:05:57;-0.60;99.90
25320;DHT22;13256;49.012;8.610;2023-02-28T06:08:36;-0.60;99.90
25320;DHT22;13256;49.012;8.610;2023-02-28T06:11:07;-0.60;99.90
25320;DHT22;13256;49.012;8.610;2023-02-28T06:13:36;-0.60;99.90
25320;DHT22;13256;49.012;8.610;2023-02-28T06:16:06;-0.60;99.90
25320;DHT22;13256;49.012;8.610;2023-02-28T06:18:33;-0.60;99.90
25320;DHT22;13256;49.012;8.610;2023-02-28T06:21:00;-0.60;99.90
25320;DHT22;13256;49.012;8.610;2023-02-28T06:23:27;-0.60;99.90
25320;DHT22;13256;49.012;8.610;2023-02-28T06:25:53;-0.50;99.90
25320;DHT22;13256;49.012;8.610;2023-02-28T06:28:37;-0.50;99.90
25320;DHT22;13256;49.012;8.610;2023-02-28T06:31:11;-0.50;99.90
25320;DHT22;13256;49.012;8.610;2023-02-28T06:34:04;-0.50;99.90
25320;DHT22;13256;49.012;8.610;2023-02-28T06:36:36;-0.50;99.90
25320;DHT22;13256;49.012;8.610;2023-02-28T06:39:06;-0.50;99.90
25320;DHT22;13256;49.012;8.610;2023-02-28T06:41:37;-0.40;99.90
25320;DHT22;13256;49.012;8.610;2023-02-28T06:44:21;-0.40;99.90
25320;DHT22;13256;49.012;8.610;2023-02-28T06:46:50;-0.40;99.90
25320;DHT22;13256;49.012;8.610;2023-02-28T07:01:07;-0.30;99.90
25320;DHT22;13256;49.012;8.610;2023-02-28T07:03:37;-0.30;99.90
25320;DHT22;13256;49.012;8.610;2023-02-28T07:06:05;-0.30;99.90
25320;DHT22;13256;49.012;8.610;2023-02-28T07:08:34;-0.20;99.90
25320;DHT22;13256;49.012;8.610;2023-02-28T07:11:08;-0.20;99.90
25320;DHT22;13256;49.012;8.610;2023-02-28T07:13:35;-0.20;99.90
25320;DHT22;13256;49.012;8.610;2023-02-28T07:16:06;-0.20;99.90
25320;DHT22;13256;49.012;8.610;2023-02-28T07:18:35;-0.10;99.90
25320;DHT22;13256;49.012;8.610;2023-02-28T07:21:07;-0.10;99.90
25320;DHT22;13256;49.012;8.610;2023-02-28T07:23:35;-0.10;99.90
25320;DHT22;13256;49.012;8.610;2023-02-28T07:26:02;-0.10;99.90
25320;DHT22;13256;49.012;8.610;2023-02-28T07:28:29;0.00;99.90
25320;DHT22;13256;49.012;8.610;2023-02-28T07:31:02;-0.10;99.90
25320;DHT22;13256;49.012;8.610;2023-02-28T07:33:29;-0.10;99.90
25320;DHT22;13256;49.012;8.610;2023-02-28T07:36:06;0.00;99.90
25320;DHT22;13256;49.012;8.610;2023-02-28T07:38:36;0.00;99.90
25320;DHT22;13256;49.012;8.610;2023-02-28T07:41:04;0.00;99.90
25320;DHT22;13256;49.012;8.610;2023-02-28T07:43:33;0.10;99.90
25320;DHT22;13256;49.012;8.610;2023-02-28T07:46:05;0.10;99.90
25320;DHT22;13256;49.012;8.610;2023-02-28T07:48:32;0.10;99.90
25320;DHT22;13256;49.012;8.610;2023-02-28T07:51:00;0.10;99.90
25320;DHT22;13256;49.012;8.610;2023-02-28T07:53:27;0.10;99.90
25320;DHT22;13256;49.012;8.610;2023-02-28T07:55:56;0.10;99.90
25320;DHT22;13256;49.012;8.610;2023-02-28T07:58:23;0.10;99.90
25320;DHT22;13256;49.012;8.610;2023-02-28T08:00:51;0.20;99.90
25320;DHT22;13256;49.012;8.610;2023-02-28T08:03:19;0.20;99.90
25320;DHT22;13256;49.012;8.610;2023-02-28T08:05:47;0.20;99.90
25320;DHT22;13256;49.012;8.610;2023-02-28T08:08:16;0.30;99.90
25320;DHT22;13256;49.012;8.610;2023-02-28T08:10:50;0.30;99.90
25320;DHT22;13256;49.012;8.610;2023-02-28T08:13:18;0.30;99.90
25320;DHT22;13256;49.012;8.610;2023-02-28T08:15:45;0.30;99.90
25320;DHT22;13256;49.012;8.610;2023-02-28T08:18:14;0.40;99.90
25320;DHT22;13256;49.012;8.610;2023-02-28T08:20:40;0.40;99.90
25320;DHT22;13256;49.012;8.610;2023-02-28T08:23:09;0.40;99.90
25320;DHT22;13256;49.012;8.610;2023-02-28T08:25:36;0.50;99.90
25320;DHT22;13256;49.012;8.610;2023-02-28T08:28:03;0.50;99.90
25320;DHT22;13256;49.012;8.610;2023-02-28T08:30:30;0.60;99.90
25320;DHT22;13256;49.012;8.610;2023-02-28T08:32:56;0.60;99.90
25320;DHT22;13256;49.012;8.610;2023-02-28T08:35:41;0.60;99.90
25320;DHT22;13256;49.012;8.610;2023-02-28T08:38:08;0.70;99.90
25320;DHT22;13256;49.012;8.610;2023-02-28T08:40:35;0.70;99.90
25320;DHT22;13256;49.012;8.610;2023-02-28T08:43:05;0.70;99.90
25320;DHT22;13256;49.012;8.610;2023-02-28T08:45:34;0.80;99.90
25320;DHT22;13256;49.012;8.610;2023-02-28T08:48:00;0.80;99.90
25320;DHT22;13256;49.012;8.610;2023-02-28T08:50:32;0.90;99.90
25320;DHT22;13256;49.012;8.610;2023-02-28T08:52:58;1.00;99.90
25320;DHT22;13256;49.012;8.610;2023-02-28T08:55:28;1.00;99.90
25320;DHT22;13256;49.012;8.610;2023-02-28T08:57:55;1.10;99.90
25320;DHT22;13256;49.012;8.610;2023-02-28T09:00:30;1.20;99.90
25320;DHT22;13256;49.012;8.610;2023-02-28T09:03:01;1.30;99.90
25320;DHT22;13256;49.012;8.610;2023-02-28T09:05:30;1.40;99.90
25320;DHT22;13256;49.012;8.610;2023-02-28T09:08:00;1.50;99.90
25320;DHT22;13256;49.012;8.610;2023-02-28T09:10:28;1.50;99.90
25320;DHT22;13256;49.012;8.610;2023-02-28T09:12:56;1.60;99.90
25320;DHT22;13256;49.012;8.610;2023-02-28T09:15:25;1.70;99.90
25320;DHT22;13256;49.012;8.610;2023-02-28T09:17:52;1.70;99.90
25320;DHT22;13256;49.012;8.610;2023-02-28T09:20:24;1.70;99.90
25320;DHT22;13256;49.012;8.610;2023-02-28T09:22:53;1.80;99.90
25320;DHT22;13256;49.012;8.610;2023-02-28T09:25:22;1.90;99.90
25320;DHT22;13256;49.012;8.610;2023-02-28T09:27:50;2.00;99.90
25320;DHT22;13256;49.012;8.610;2023-02-28T09:30:17;2.00;99.90
25320;DHT22;13256;49.012;8.610;2023-02-28T09:33:08;2.10;99.90
25320;DHT22;13256;49.012;8.610;2023-02-28T09:35:35;2.20;99.90
25320;DHT22;13256;49.012;8.610;2023-02-28T09:38:04;2.20;99.90
25320;DHT22;13256;49.012;8.610;2023-02-28T09:43:14;2.30;99.90
25320;DHT22;13256;49.012;8.610;2023-02-28T09:45:50;2.30;99.90
25320;DHT22;13256;49.012;8.610;2023-02-28T09:48:21;2.30;99.90
25320;DHT22;13256;49.012;8.610;2023-02-28T09:50:52;2.30;99.90
25320;DHT22;13256;49.012;8.610;2023-02-28T09:55:57;2.30;99.90
25320;DHT22;13256;49.012;8.610;2023-02-28T09:58:39;2.40;99.90
25320;DHT22;13256;49.012;8.610;2023-02-28T10:01:19;2.50;99.90
25320;DHT22;13256;49.012;8.610;2023-02-28T10:04:08;2.60;99.90
25320;DHT22;13256;49.012;8.610;2023-02-28T10:06:45;2.60;99.90
25320;DHT22;13256;49.012;8.610;2023-02-28T10:09:25;2.50;99.90
25320;DHT22;13256;49.012;8.610;2023-02-28T10:11:57;2.50;99.90
25320;DHT22;13256;49.012;8.610;2023-02-28T10:14:32;2.50;99.90
25320;DHT22;13256;49.012;8.610;2023-02-28T10:17:17;2.50;99.90
25320;DHT22;13256;49.012;8.610;2023-02-28T10:25:04;2.70;99.90
25320;DHT22;13256;49.012;8.610;2023-02-28T10:27:36;2.70;99.90
25320;DHT22;13256;49.012;8.610;2023-02-28T10:30:05;2.70;99.90
25320;DHT22;13256;49.012;8.610;2023-02-28T10:32:35;2.70;99.90
25320;DHT22;13256;49.012;8.610;2023-02-28T10:37:42;2.80;99.90
25320;DHT22;13256;49.012;8.610;2023-02-28T10:40:34;2.80;99.90
25320;DHT22;13256;49.012;8.610;2023-02-28T10:45:51;3.00;99.90
25320;DHT22;13256;49.012;8.610;2023-02-28T10:59:02;3.30;99.90
25320;DHT22;13256;49.012;8.610;2023-02-28T11:03:58;3.40;99.90
25320;DHT22;13256;49.012;8.610;2023-02-28T11:06:33;3.50;99.90
25320;DHT22;13256;49.012;8.610;2023-02-28T11:09:33;3.60;99.90
25320;DHT22;13256;49.012;8.610;2023-02-28T11:12:06;3.50;99.90
25320;DHT22;13256;49.012;8.610;2023-02-28T11:14:46;3.60;99.90
25320;DHT22;13256;49.012;8.610;2023-02-28T11:17:22;3.60;99.90
25320;DHT22;13256;49.012;8.610;2023-02-28T11:19:59;3.70;99.90
25320;DHT22;13256;49.012;8.610;2023-02-28T11:22:36;3.70;99.90
25320;DHT22;13256;49.012;8.610;2023-02-28T11:25:23;3.80;99.90
25320;DHT22;13256;49.012;8.610;2023-02-28T11:27:55;3.70;99.90
25320;DHT22;13256;49.012;8.610;2023-02-28T11:30:30;3.80;99.90
25320;DHT22;13256;49.012;8.610;2023-02-28T11:32:57;3.80;99.90
25320;DHT22;13256;49.012;8.610;2023-02-28T11:35:36;3.90;99.90
25320;DHT22;13256;49.012;8.610;2023-02-28T11:38:09;3.90;99.90
25320;DHT22;13256;49.012;8.610;2023-02-28T11:40:48;4.00;99.90
25320;DHT22;13256;49.012;8.610;2023-02-28T11:49:35;4.10;99.90
25320;DHT22;13256;49.012;8.610;2023-02-28T11:52:21;4.10;99.90
25320;DHT22;13256;49.012;8.610;2023-02-28T12:06:15;4.70;99.90
25320;DHT22;13256;49.012;8.610;2023-02-28T12:28:19;6.30;99.90
25320;DHT22;13256;49.012;8.610;2023-02-28T12:31:01;6.20;99.90
25320;DHT22;13256;49.012;8.610;2023-02-28T12:33:42;6.20;99.90
25320;DHT22;13256;49.012;8.610;2023-02-28T12:36:18;6.20;99.90
25320;DHT22;13256;49.012;8.610;2023-02-28T12:38:48;6.10;99.90
25320;DHT22;13256;49.012;8.610;2023-02-28T12:41:22;6.20;99.90
25320;DHT22;13256;49.012;8.610;2023-02-28T12:47:05;6.10;99.90
25320;DHT22;13256;49.012;8.610;2023-02-28T12:52:19;5.90;99.90
25320;DHT22;13256;49.012;8.610;2023-02-28T12:57:40;6.30;99.90
25320;DHT22;13256;49.012;8.610;2023-02-28T13:00:13;6.50;99.90
25320;DHT22;13256;49.012;8.610;2023-02-28T13:05:32;6.50;99.50
25320;DHT22;13256;49.012;8.610;2023-02-28T13:10:56;6.30;99.40
25320;DHT22;13256;49.012;8.610;2023-02-28T13:13:26;6.30;99.40
25320;DHT22;13256;49.012;8.610;2023-02-28T13:16:15;6.30;99.20
25320;DHT22;13256;49.012;8.610;2023-02-28T13:18:48;6.20;99.40
25320;DHT22;13256;49.012;8.610;2023-02-28T13:21:42;6.20;99.70
25320;DHT22;13256;49.012;8.610;2023-02-28T13:24:11;6.50;99.90
25320;DHT22;13256;49.012;8.610;2023-02-28T13:29:37;7.30;99.00
25320;DHT22;13256;49.012;8.610;2023-02-28T13:39:48;7.50;97.10
25320;DHT22;13256;49.012;8.610;2023-02-28T13:48:01;7.30;96.20
25320;DHT22;13256;49.012;8.610;2023-02-28T13:50:30;7.30;96.30
25320;DHT22;13256;49.012;8.610;2023-02-28T13:59:01;7.30;96.60
25320;DHT22;13256;49.012;8.610;2023-02-28T14:01:45;7.30;96.70
25320;DHT22;13256;49.012;8.610;2023-02-28T14:04:58;7.60;97.20
25320;DHT22;13256;49.012;8.610;2023-02-28T14:07:43;7.90;95.40
25320;DHT22;13256;49.012;8.610;2023-02-28T14:10:28;8.00;95.40
25320;DHT22;13256;49.012;8.610;2023-02-28T14:15:47;7.90;95.50
25320;DHT22;13256;49.012;8.610;2023-02-28T14:18:23;8.00;94.60
25320;DHT22;13256;49.012;8.610;2023-02-28T14:32:06;8.10;95.60
25320;DHT22;13256;49.012;8.610;2023-02-28T14:37:13;8.40;93.10
25320;DHT22;13256;49.012;8.610;2023-02-28T14:39:44;8.10;93.20
25320;DHT22;13256;49.012;8.610;2023-02-28T14:42:46;8.00;93.70
25320;DHT22;13256;49.012;8.610;2023-02-28T14:45:21;7.90;94.10
25320;DHT22;13256;49.012;8.610;2023-02-28T14:47:50;8.00;93.90
25320;DHT22;13256;49.012;8.610;2023-02-28T14:50:20;8.20;93.90
25320;DHT22;13256;49.012;8.610;2023-02-28T14:52:52;8.30;93.40
25320;DHT22;13256;49.012;8.610;2023-02-28T14:55:24;8.40;93.30
25320;DHT22;13256;49.012;8.610;2023-02-28T14:58:03;8.40;92.90
25320;DHT22;13256;49.012;8.610;2023-02-28T15:00:47;8.40;92.60
25320;DHT22;13256;49.012;8.610;2023-02-28T15:03:42;8.40;92.50
25320;DHT22;13256;49.012;8.610;2023-02-28T15:06:17;8.40;92.90
25320;DHT22;13256;49.012;8.610;2023-02-28T15:08:45;8.40;92.40
25320;DHT22;13256;49.012;8.610;2023-02-28T15:11:17;8.20;92.50
25320;DHT22;13256;49.012;8.610;2023-02-28T15:13:54;8.10;92.40
25320;DHT22;13256;49.012;8.610;2023-02-28T15:16:37;8.00;93.50
25320;DHT22;13256;49.012;8.610;2023-02-28T15:19:18;8.00;92.70
25320;DHT22;13256;49.012;8.610;2023-02-28T15:21:50;7.80;92.70
25320;DHT22;13256;49.012;8.610;2023-02-28T15:50:30;7.00;93.40
25320;DHT22;13256;49.012;8.610;2023-02-28T15:53:00;6.90;94.20
25320;DHT22;13256;49.012;8.610;2023-02-28T15:55:32;6.90;94.10
25320;DHT22;13256;49.012;8.610;2023-02-28T15:58:24;6.70;94.20
25320;DHT22;13256;49.012;8.610;2023-02-28T16:01:24;6.60;94.80
25320;DHT22;13256;49.012;8.610;2023-02-28T16:03:55;6.50;94.90
25320;DHT22;13256;49.012;8.610;2023-02-28T16:06:39;6.40;95.10
25320;DHT22;13256;49.012;8.610;2023-02-28T16:09:15;6.20;94.80
25320;DHT22;13256;49.012;8.610;2023-02-28T16:11:47;6.20;95.30
25320;DHT22;13256;49.012;8.610;2023-02-28T16:14:35;6.10;95.70
25320;DHT22;13256;49.012;8.610;2023-02-28T16:17:10;6.00;95.50
25320;DHT22;13256;49.012;8.610;2023-02-28T16:19:40;5.90;95.50
25320;DHT22;13256;49.012;8.610;2023-02-28T16:22:09;5.80;95.70
25320;DHT22;13256;49.012;8.610;2023-02-28T16:24:45;5.80;96.20
25320;DHT22;13256;49.012;8.610;2023-02-28T16:27:28;5.70;96.50
25320;DHT22;13256;49.012;8.610;2023-02-28T16:29:56;5.60;96.30
25320;DHT22;13256;49.012;8.610;2023-02-28T16:32:23;5.60;96.60
25320;DHT22;13256;49.012;8.610;2023-02-28T16:34:54;5.50;96.60
25320;DHT22;13256;49.012;8.610;2023-02-28T16:37:21;5.50;97.20
25320;DHT22;13256;49.012;8.610;2023-02-28T16:39:47;5.50;97.30
25320;DHT22;13256;49.012;8.610;2023-02-28T16:42:26;5.40;96.80
25320;DHT22;13256;49.012;8.610;2023-02-28T16:44:56;5.40;97.40
25320;DHT22;13256;49.012;8.610;2023-02-28T16:47:54;5.30;97.30
25320;DHT22;13256;49.012;8.610;2023-02-28T16:50:29;5.20;97.40
25320;DHT22;13256;49.012;8.610;2023-02-28T16:53:01;5.20;97.80
25320;DHT22;13256;49.012;8.610;2023-02-28T16:55:27;5.10;98.00
25320;DHT22;13256;49.012;8.610;2023-02-28T16:57:57;5.10;98.40
25320;DHT22;13256;49.012;8.610;2023-02-28T17:00:27;5.00;98.50
25320;DHT22;13256;49.012;8.610;2023-02-28T17:02:55;5.00;98.60
25320;DHT22;13256;49.012;8.610;2023-02-28T17:05:26;5.00;98.60
25320;DHT22;13256;49.012;8.610;2023-02-28T17:08:03;4.90;98.80
25320;DHT22;13256;49.012;8.610;2023-02-28T17:10:30;4.80;98.90
25320;DHT22;13256;49.012;8.610;2023-02-28T17:13:01;4.80;98.80
25320;DHT22;13256;49.012;8.610;2023-02-28T17:15:44;4.70;99.30
25320;DHT22;13256;49.012;8.610;2023-02-28T17:18:15;4.60;99.50
25320;DHT22;13256;49.012;8.610;2023-02-28T17:20:43;4.50;99.90
25320;DHT22;13256;49.012;8.610;2023-02-28T17:23:10;4.40;99.90
25320;DHT22;13256;49.012;8.610;2023-02-28T17:25:39;4.30;99.90
25320;DHT22;13256;49.012;8.610;2023-02-28T17:28:05;4.30;99.90
25320;DHT22;13256;49.012;8.610;2023-02-28T17:30:34;4.30;99.90
25320;DHT22;13256;49.012;8.610;2023-02-28T17:33:06;4.10;99.90
25320;DHT22;13256;49.012;8.610;2023-02-28T17:35:39;4.00;99.90
25320;DHT22;13256;49.012;8.610;2023-02-28T17:38:25;4.00;99.90
25320;DHT22;13256;49.012;8.610;2023-02-28T17:40:54;3.90;99.90
25320;DHT22;13256;49.012;8.610;2023-02-28T17:43:57;3.90;99.90
25320;DHT22;13256;49.012;8.610;2023-02-28T17:46:27;3.80;99.90
25320;DHT22;13256;49.012;8.610;2023-02-28T17:48:55;3.80;99.90
25320;DHT22;13256;49.012;8.610;2023-02-28T17:51:24;3.70;99.90
25320;DHT22;13256;49.012;8.610;2023-02-28T17:53:54;3.70;99.90
25320;DHT22;13256;49.012;8.610;2023-02-28T17:56:24;3.70;99.90
25320;DHT22;13256;49.012;8.610;2023-02-28T17:58:55;3.60;99.90
25320;DHT22;13256;49.012;8.610;2023-02-28T18:01:24;3.60;99.90
25320;DHT22;13256;49.012;8.610;2023-02-28T18:03:55;3.50;99.90
25320;DHT22;13256;49.012;8.610;2023-02-28T18:06:43;3.50;99.90
25320;DHT22;13256;49.012;8.610;2023-02-28T18:09:41;3.50;99.90
25320;DHT22;13256;49.012;8.610;2023-02-28T18:12:08;3.50;99.90
25320;DHT22;13256;49.012;8.610;2023-02-28T18:14:36;3.40;99.90
25320;DHT22;13256;49.012;8.610;2023-02-28T18:17:03;3.40;99.90
25320;DHT22;13256;49.012;8.610;2023-02-28T18:19:33;3.40;99.90
25320;DHT22;13256;49.012;8.610;2023-02-28T18:22:02;3.30;99.90
25320;DHT22;13256;49.012;8.610;2023-02-28T18:24:33;3.20;99.90
25320;DHT22;13256;49.012;8.610;2023-02-28T18:27:06;3.20;99.90
25320;DHT22;13256;49.012;8.610;2023-02-28T18:29:33;3.20;99.90
25320;DHT22;13256;49.012;8.610;2023-02-28T18:32:05;3.10;99.90
25320;DHT22;13256;49.012;8.610;2023-02-28T18:34:34;3.10;99.90
25320;DHT22;13256;49.012;8.610;2023-02-28T18:37:03;3.10;99.90
25320;DHT22;13256;49.012;8.610;2023-02-28T18:39:33;3.00;99.90
25320;DHT22;13256;49.012;8.610;2023-02-28T18:42:00;3.00;99.90
25320;DHT22;13256;49.012;8.610;2023-02-28T18:44:31;3.00;99.90
25320;DHT22;13256;49.012;8.610;2023-02-28T18:47:00;2.90;99.90
25320;DHT22;13256;49.012;8.610;2023-02-28T18:49:31;2.90;99.90
25320;DHT22;13256;49.012;8.610;2023-02-28T18:52:04;2.90;99.90
25320;DHT22;13256;49.012;8.610;2023-02-28T18:54:31;2.80;99.90
25320;DHT22;13256;49.012;8.610;2023-02-28T18:57:01;2.80;99.90
25320;DHT22;13256;49.012;8.610;2023-02-28T18:59:31;2.70;99.90
25320;DHT22;13256;49.012;8.610;2023-02-28T19:01:57;2.70;99.90
25320;DHT22;13256;49.012;8.610;2023-02-28T19:04:24;2.70;99.90
25320;DHT22;13256;49.012;8.610;2023-02-28T19:06:54;2.60;99.90
25320;DHT22;13256;49.012;8.610;2023-02-28T19:09:21;2.60;99.90
25320;DHT22;13256;49.012;8.610;2023-02-28T19:11:53;2.60;99.90
25320;DHT22;13256;49.012;8.610;2023-02-28T19:14:20;2.60;99.90
25320;DHT22;13256;49.012;8.610;2023-02-28T19:16:47;2.50;99.90
25320;DHT22;13256;49.012;8.610;2023-02-28T19:19:22;2.50;99.90
25320;DHT22;13256;49.012;8.610;2023-02-28T19:21:50;2.50;99.90
25320;DHT22;13256;49.012;8.610;2023-02-28T19:24:19;2.40;99.90
25320;DHT22;13256;49.012;8.610;2023-02-28T19:26:50;2.40;99.90
25320;DHT22;13256;49.012;8.610;2023-02-28T19:29:16;2.40;99.90
25320;DHT22;13256;49.012;8.610;2023-02-28T19:31:44;2.40;99.90
25320;DHT22;13256;49.012;8.610;2023-02-28T19:34:11;2.30;99.90
25320;DHT22;13256;49.012;8.610;2023-02-28T19:36:39;2.20;99.90
25320;DHT22;13256;49.012;8.610;2023-02-28T19:39:05;2.10;99.90
25320;DHT22;13256;49.012;8.610;2023-02-28T19:41:32;2.00;99.90
25320;DHT22;13256;49.012;8.610;2023-02-28T19:44:01;1.90;99.90